Time,TemperatureF,DewpointF,PressureIn,WindDirection,WindDirectionDegrees,WindSpeedMPH,WindSpeedGustMPH,Humidity,HourlyPrecipIn,Conditions,Clouds,dailyrainin,SoftwareType,DateUTC
2014-01-15 00:09:00,37.5,21.0,29.94,NW,314,3.0,12.0,51,0.00,,,0.00,weatherlink.com 1.10,2014-01-15 05:09:00,
2014-01-15 00:24:00,36.8,20.0,29.94,WNW,291,5.0,7.0,52,0.00,,,0.00,weatherlink.com 1.10,2014-01-15 05:24:00,
2014-01-15 00:39:00,37.3,20.0,29.94,WNW,296,8.0,13.0,50,0.00,,,0.00,weatherlink.com 1.10,2014-01-15 05:39:00,
2014-01-15 00:54:00,37.1,20.0,29.93,NW,320,5.0,13.0,51,0.00,,,0.00,weatherlink.com 1.10,2014-01-15 05:54:00,
2014-01-15 01:09:00,36.6,21.0,29.93,NNW,331,7.0,21.0,54,0.00,,,0.00,weatherlink.com 1.10,2014-01-15 06:09:00,
2014-01-15 01:24:00,35.7,22.0,29.93,WNW,297,5.0,15.0,57,0.00,,,0.00,weatherlink.com 1.10,2014-01-15 06:24:00,
2014-01-15 01:39:00,35.5,22.0,29.92,WNW,298,6.0,14.0,59,0.00,,,0.00,weatherlink.com 1.10,2014-01-15 06:39:00,
2014-01-15 01:54:00,35.8,22.0,29.93,North,1,7.0,12.0,58,0.00,,,0.00,weatherlink.com 1.10,2014-01-15 06:54:00,
2014-01-15 02:09:00,36.5,22.0,29.93,West,264,6.0,17.0,57,0.00,,,0.00,weatherlink.com 1.10,2014-01-15 07:09:00,
2014-01-15 02:24:00,36.6,23.0,29.92,WNW,290,7.0,17.0,58,0.00,,,0.00,weatherlink.com 1.10,2014-01-15 07:24:00,
2014-01-15 02:39:00,36.4,23.0,29.93,WNW,288,7.0,17.0,59,0.00,,,0.00,weatherlink.com 1.10,2014-01-15 07:39:00,
2014-01-15 02:54:00,36.3,24.0,29.92,WNW,285,6.0,15.0,61,0.00,,,0.00,weatherlink.com 1.10,2014-01-15 07:54:00,
2014-01-15 03:09:00,36.2,24.0,29.92,NW,307,6.0,15.0,62,0.00,,,0.00,weatherlink.com 1.10,2014-01-15 08:09:00,
2014-01-15 03:24:00,36.1,25.0,29.92,NW,315,3.0,14.0,64,0.00,,,0.00,weatherlink.com 1.10,2014-01-15 08:24:00,
2014-01-15 03:39:00,35.7,25.0,29.92,WNW,301,4.0,11.0,65,0.00,,,0.00,weatherlink.com 1.10,2014-01-15 08:39:00,
2014-01-15 03:54:00,35.5,25.0,29.91,NW,309,4.0,10.0,65,0.00,,,0.00,weatherlink.com 1.10,2014-01-15 08:54:00,
2014-01-15 04:09:00,35.6,25.0,29.90,NW,310,8.0,9.0,66,0.00,,,0.00,weatherlink.com 1.10,2014-01-15 09:09:00,
2014-01-15 04:24:00,35.9,25.0,29.90,NW,323,7.0,10.0,66,0.00,,,0.00,weatherlink.com 1.10,2014-01-15 09:24:00,
2014-01-15 04:39:00,36.1,26.0,29.90,NW,314,4.0,11.0,66,0.00,,,0.00,weatherlink.com 1.10,2014-01-15 09:39:00,
2014-01-15 04:54:00,35.9,26.0,29.90,NW,309,4.0,9.0,67,0.00,,,0.00,weatherlink.com 1.10,2014-01-15 09:54:00,
2014-01-15 05:09:00,35.9,26.0,29.90,NW,308,3.0,8.0,67,0.00,,,0.00,weatherlink.com 1.10,2014-01-15 10:09:00,
2014-01-15 05:24:00,35.8,26.0,29.90,NW,320,3.0,8.0,68,0.00,,,0.00,weatherlink.com 1.10,2014-01-15 10:24:00,
2014-01-15 05:39:00,35.7,26.0,29.90,WNW,302,4.0,8.0,68,0.00,,,0.00,weatherlink.com 1.10,2014-01-15 10:39:00,
2014-01-15 05:54:00,35.1,26.0,29.91,WNW,297,5.0,7.0,69,0.00,,,0.00,weatherlink.com 1.10,2014-01-15 10:54:00,
2014-01-15 06:09:00,34.3,26.0,29.90,NW,323,3.0,10.0,71,0.00,,,0.00,weatherlink.com 1.10,2014-01-15 11:09:00,
2014-01-15 06:24:00,32.4,25.0,29.90,North,351,3.0,8.0,75,0.00,,,0.00,weatherlink.com 1.10,2014-01-15 11:24:00,
2014-01-15 06:39:00,31.7,26.0,29.90,NNW,342,4.0,8.0,78,0.00,,,0.00,weatherlink.com 1.10,2014-01-15 11:39:00,
2014-01-15 06:54:00,31.4,26.0,29.90,NNW,335,4.0,10.0,81,0.00,,,0.00,weatherlink.com 1.10,2014-01-15 11:54:00,
2014-01-15 07:09:00,31.1,27.0,29.91,WNW,302,2.0,9.0,83,0.00,,,0.00,weatherlink.com 1.10,2014-01-15 12:09:00,
2014-01-15 07:25:00,30.9,27.0,29.91,NW,306,6.0,10.0,85,0.00,,,0.00,weatherlink.com 1.10,2014-01-15 12:25:00,
2014-01-15 07:40:00,30.8,27.0,29.91,NNW,340,5.0,12.0,86,0.00,,,0.00,weatherlink.com 1.10,2014-01-15 12:40:00,
2014-01-15 07:55:00,30.9,28.0,29.91,NW,307,2.0,13.0,88,0.00,,,0.00,weatherlink.com 1.10,2014-01-15 12:55:00,
2014-01-15 08:10:00,31.0,28.0,29.91,NNW,335,3.0,11.0,87,0.00,,,0.00,weatherlink.com 1.10,2014-01-15 13:10:00,
2014-01-15 08:25:00,30.7,28.0,29.92,NW,307,8.0,11.0,88,0.00,,,0.00,weatherlink.com 1.10,2014-01-15 13:25:00,
2014-01-15 08:40:00,30.3,28.0,29.93,NW,321,12.0,16.0,90,0.00,,,0.00,weatherlink.com 1.10,2014-01-15 13:40:00,
2014-01-15 08:55:00,30.2,28.0,29.93,WNW,297,9.0,17.0,91,0.00,,,0.00,weatherlink.com 1.10,2014-01-15 13:55:00,
2014-01-15 09:10:00,30.1,28.0,29.93,NW,315,4.0,13.0,92,0.00,,,0.00,weatherlink.com 1.10,2014-01-15 14:10:00,
2014-01-15 09:25:00,29.8,28.0,29.94,NW,322,9.0,11.0,94,0.00,,,0.00,weatherlink.com 1.10,2014-01-15 14:25:00,
2014-01-15 09:40:00,29.4,28.0,29.94,North,352,3.0,13.0,95,0.00,,,0.00,weatherlink.com 1.10,2014-01-15 14:40:00,
2014-01-15 09:55:00,29.0,28.0,29.94,NNW,333,5.0,12.0,96,0.00,,,0.00,weatherlink.com 1.10,2014-01-15 14:55:00,
2014-01-15 10:10:00,28.6,28.0,29.94,NW,322,7.0,13.0,96,0.00,,,0.00,weatherlink.com 1.10,2014-01-15 15:10:00,
2014-01-15 10:25:00,28.4,27.0,29.94,NW,314,5.0,17.0,96,0.00,,,0.00,weatherlink.com 1.10,2014-01-15 15:25:00,
2014-01-15 10:40:00,28.7,28.0,29.94,NW,309,4.0,15.0,95,0.00,,,0.00,weatherlink.com 1.10,2014-01-15 15:40:00,
2014-01-15 10:55:00,28.7,27.0,29.93,NNW,337,6.0,20.0,93,0.00,,,0.00,weatherlink.com 1.10,2014-01-15 15:55:00,
2014-01-15 11:10:00,28.8,26.0,29.93,NNW,328,5.0,18.0,90,0.00,,,0.00,weatherlink.com 1.10,2014-01-15 16:10:00,
2014-01-15 11:25:00,29.0,26.0,29.92,North,6,6.0,15.0,88,0.00,,,0.00,weatherlink.com 1.10,2014-01-15 16:25:00,
2014-01-15 11:40:00,28.8,26.0,29.91,WNW,298,17.0,17.0,88,0.00,,,0.00,weatherlink.com 1.10,2014-01-15 16:40:00,
2014-01-15 11:55:00,28.1,25.0,29.91,WNW,302,7.0,15.0,89,0.00,,,0.00,weatherlink.com 1.10,2014-01-15 16:55:00,
2014-01-15 12:10:00,27.7,24.0,29.89,NW,320,6.0,18.0,87,0.00,,,0.00,weatherlink.com 1.10,2014-01-15 17:10:00,
2014-01-15 12:25:00,27.7,25.0,29.89,NW,316,1.0,20.0,90,0.00,,,0.00,weatherlink.com 1.10,2014-01-15 17:25:00,
2014-01-15 12:40:00,26.7,25.0,29.89,NW,315,5.0,12.0,91,0.00,,,0.00,weatherlink.com 1.10,2014-01-15 17:40:00,
2014-01-15 12:55:00,26.6,25.0,29.88,NNW,342,6.0,11.0,92,0.00,,,0.00,weatherlink.com 1.10,2014-01-15 17:55:00,
2014-01-15 13:10:00,25.9,24.0,29.87,NNW,347,6.0,17.0,92,0.00,,,0.00,weatherlink.com 1.10,2014-01-15 18:10:00,
2014-01-15 13:25:00,25.7,24.0,29.87,WNW,298,7.0,18.0,92,0.00,,,0.00,weatherlink.com 1.10,2014-01-15 18:25:00,
2014-01-15 13:40:00,25.7,24.0,29.87,NNW,340,12.0,15.0,94,0.00,,,0.00,weatherlink.com 1.10,2014-01-15 18:40:00,
2014-01-15 13:55:00,25.8,24.0,29.87,NNW,329,6.0,12.0,94,0.00,,,0.00,weatherlink.com 1.10,2014-01-15 18:55:00,
2014-01-15 14:10:00,25.7,24.0,29.87,WNW,298,5.0,18.0,94,0.00,,,0.00,weatherlink.com 1.10,2014-01-15 19:10:00,
2014-01-15 14:25:00,25.8,25.0,29.87,North,354,7.0,17.0,95,0.00,,,0.00,weatherlink.com 1.10,2014-01-15 19:25:00,
2014-01-15 14:40:00,25.7,25.0,29.86,NNW,347,3.0,17.0,95,0.00,,,0.00,weatherlink.com 1.10,2014-01-15 19:40:00,
2014-01-15 14:56:00,25.8,24.0,29.86,NNW,335,6.0,11.0,94,0.00,,,0.00,weatherlink.com 1.10,2014-01-15 19:56:00,
2014-01-15 15:11:00,25.8,24.0,29.86,NE,53,7.0,20.0,93,0.00,,,0.00,weatherlink.com 1.10,2014-01-15 20:11:00,
2014-01-15 15:26:00,25.8,24.0,29.86,NW,311,4.0,16.0,93,0.00,,,0.00,weatherlink.com 1.10,2014-01-15 20:26:00,
2014-01-15 15:41:00,25.9,24.0,29.87,NW,316,12.0,14.0,94,0.00,,,0.00,weatherlink.com 1.10,2014-01-15 20:41:00,
2014-01-15 15:56:00,26.0,25.0,29.87,NW,323,3.0,15.0,94,0.00,,,0.00,weatherlink.com 1.10,2014-01-15 20:56:00,
2014-01-15 16:11:00,25.9,24.0,29.87,WNW,302,8.0,17.0,92,0.00,,,0.00,weatherlink.com 1.10,2014-01-15 21:11:00,
2014-01-15 16:26:00,26.1,23.0,29.88,North,358,13.0,14.0,89,0.00,,,0.00,weatherlink.com 1.10,2014-01-15 21:26:00,
2014-01-15 16:41:00,26.0,24.0,29.88,NW,323,4.0,13.0,90,0.00,,,0.00,weatherlink.com 1.10,2014-01-15 21:41:00,
2014-01-15 16:56:00,25.8,23.0,29.88,NNW,341,4.0,9.0,90,0.00,,,0.00,weatherlink.com 1.10,2014-01-15 21:56:00,
2014-01-15 17:11:00,25.6,23.0,29.88,NNW,335,5.0,12.0,90,0.00,,,0.00,weatherlink.com 1.10,2014-01-15 22:11:00,
2014-01-15 17:26:00,25.8,23.0,29.88,SSW,203,0.0,14.0,89,0.00,,,0.00,weatherlink.com 1.10,2014-01-15 22:26:00,
2014-01-15 17:41:00,25.5,23.0,29.88,North,353,5.0,15.0,88,0.00,,,0.00,weatherlink.com 1.10,2014-01-15 22:41:00,
2014-01-15 17:56:00,25.3,22.0,29.89,North,356,11.0,13.0,88,0.00,,,0.00,weatherlink.com 1.10,2014-01-15 22:56:00,
2014-01-15 18:11:00,25.2,22.0,29.88,NNW,330,6.0,14.0,89,0.00,,,0.00,weatherlink.com 1.10,2014-01-15 23:11:00,
2014-01-15 18:26:00,25.0,23.0,29.89,NNW,332,4.0,9.0,90,0.00,,,0.00,weatherlink.com 1.10,2014-01-15 23:26:00,
2014-01-15 18:41:00,24.8,23.0,29.89,NNW,345,5.0,15.0,91,0.00,,,0.00,weatherlink.com 1.10,2014-01-15 23:41:00,
2014-01-15 18:56:00,24.5,22.0,29.89,NNW,346,6.0,14.0,91,0.00,,,0.00,weatherlink.com 1.10,2014-01-15 23:56:00,
2014-01-15 19:11:00,24.1,22.0,29.90,NNW,329,4.0,15.0,92,0.00,,,0.00,weatherlink.com 1.10,2014-01-16 00:11:00,
2014-01-15 19:26:00,23.8,22.0,29.91,NNW,347,3.0,14.0,92,0.00,,,0.00,weatherlink.com 1.10,2014-01-16 00:26:00,
2014-01-15 19:41:00,23.5,22.0,29.91,NW,323,9.0,13.0,93,0.00,,,0.00,weatherlink.com 1.10,2014-01-16 00:41:00,
2014-01-15 19:56:00,23.3,22.0,29.91,NW,309,7.0,13.0,94,0.00,,,0.00,weatherlink.com 1.10,2014-01-16 00:56:00,
2014-01-15 20:11:00,23.2,22.0,29.91,NW,319,10.0,16.0,94,0.00,,,0.00,weatherlink.com 1.10,2014-01-16 01:11:00,
2014-01-15 20:26:00,23.1,21.0,29.91,NW,320,6.0,19.0,93,0.00,,,0.00,weatherlink.com 1.10,2014-01-16 01:26:00,
2014-01-15 20:41:00,22.7,21.0,29.92,NNE,32,5.0,18.0,92,0.00,,,0.00,weatherlink.com 1.10,2014-01-16 01:41:00,
2014-01-15 20:56:00,22.5,21.0,29.92,NNW,333,6.0,19.0,92,0.00,,,0.00,weatherlink.com 1.10,2014-01-16 01:56:00,
2014-01-15 21:11:00,22.5,21.0,29.92,NNW,338,6.0,15.0,93,0.00,,,0.00,weatherlink.com 1.10,2014-01-16 02:11:00,
2014-01-15 21:26:00,22.4,21.0,29.92,WNW,297,8.0,20.0,94,0.00,,,0.00,weatherlink.com 1.10,2014-01-16 02:26:00,
2014-01-15 21:41:00,22.2,21.0,29.93,NNW,333,8.0,15.0,94,0.00,,,0.00,weatherlink.com 1.10,2014-01-16 02:41:00,
2014-01-15 21:56:00,22.3,21.0,29.92,North,5,6.0,13.0,94,0.00,,,0.00,weatherlink.com 1.10,2014-01-16 02:56:00,
2014-01-15 22:11:00,22.3,21.0,29.93,North,349,9.0,15.0,95,0.00,,,0.00,weatherlink.com 1.10,2014-01-16 03:11:00,
2014-01-15 22:26:00,21.9,21.0,29.92,NNW,339,9.0,16.0,94,0.00,,,0.00,weatherlink.com 1.10,2014-01-16 03:26:00,
2014-01-15 22:41:00,21.2,20.0,29.93,NW,311,9.0,15.0,93,0.00,,,0.00,weatherlink.com 1.10,2014-01-16 03:41:00,
2014-01-15 22:56:00,20.5,19.0,29.92,NNW,347,10.0,24.0,93,0.00,,,0.00,weatherlink.com 1.10,2014-01-16 03:56:00,
2014-01-15 23:12:00,19.9,18.0,29.92,NNW,342,9.0,18.0,92,0.00,,,0.00,weatherlink.com 1.10,2014-01-16 04:12:00,
2014-01-15 23:27:00,19.5,17.0,29.91,WNW,302,4.0,20.0,90,0.00,,,0.00,weatherlink.com 1.10,2014-01-16 04:27:00,
2014-01-15 23:42:00,19.3,17.0,29.91,NNW,338,8.0,18.0,91,0.00,,,0.00,weatherlink.com 1.10,2014-01-16 04:42:00,
2014-01-15 23:57:00,19.2,17.0,29.91,NNW,335,8.0,18.0,91,0.00,,,0.00,weatherlink.com 1.10,2014-01-16 04:57:00,